Time;durP1;ratioP1;P1;durP2;ratioP2;P2;SDS_P1;SDS_P2;PMS_P1;PMS_P2;Temp;Humidity;BMP_temperature;BMP_pressure;BME280_temperature;BME280_humidity;BME280_pressure;Samples;Min_cycle;Max_cycle;Signal;HPM_P1;HPM_P2
2021/11/10 00:00:18;;;;;;;16.07;10.23;;;5.20;99.90;;;;;;5032666;28;20495;-55
2021/11/10 00:02:44;;;;;;;11.47;10.00;;;5.20;99.90;;;;;;5032600;28;20427;-56
2021/11/10 00:05:11;;;;;;;9.37;8.47;;;5.10;99.90;;;;;;5032769;28;20414;-56
2021/11/10 00:07:37;;;;;;;11.27;9.93;;;5.20;99.90;;;;;;5032853;28;20394;-54
2021/11/10 00:10:04;;;;;;;10.37;9.03;;;5.20;99.90;;;;;;5032443;28;20414;-55
2021/11/10 00:12:30;;;;;;;10.10;9.00;;;5.20;99.90;;;;;;5032535;28;20191;-56
2021/11/10 00:14:56;;;;;;;14.43;10.43;;;5.20;99.90;;;;;;5032796;28;20406;-56
2021/11/10 00:17:22;;;;;;;10.63;9.40;;;5.20;99.90;;;;;;5032558;28;20794;-52
2021/11/10 00:19:47;;;;;;;11.13;8.83;;;5.30;99.90;;;;;;5032728;28;20224;-52
2021/11/10 00:22:13;;;;;;;11.53;8.80;;;5.20;99.90;;;;;;5032318;28;20697;-56
2021/11/10 00:24:39;;;;;;;10.80;9.40;;;5.10;99.90;;;;;;5032076;28;20238;-55
2021/11/10 00:27:05;;;;;;;12.23;10.07;;;4.90;99.90;;;;;;5032647;28;20254;-56
2021/11/10 00:29:30;;;;;;;14.03;10.03;;;4.90;99.90;;;;;;5032436;28;20174;-55
2021/11/10 00:31:56;;;;;;;13.00;9.70;;;4.90;99.90;;;;;;5032514;28;20998;-56
2021/11/10 00:34:21;;;;;;;10.37;8.87;;;4.80;99.90;;;;;;5032374;28;20198;-53
2021/11/10 00:36:48;;;;;;;13.60;11.27;;;4.80;99.90;;;;;;5032330;28;20255;-55
2021/11/10 00:39:13;;;;;;;13.40;10.30;;;4.80;99.90;;;;;;5033173;28;20163;-55
2021/11/10 00:41:39;;;;;;;15.50;11.63;;;4.70;99.90;;;;;;5035772;28;20484;-53
2021/11/10 00:44:05;;;;;;;12.33;10.07;;;4.70;99.90;;;;;;5035774;28;20554;-56
2021/11/10 00:46:32;;;;;;;12.97;10.20;;;4.70;99.90;;;;;;5035741;28;20257;-58
2021/11/10 00:48:58;;;;;;;13.93;10.70;;;4.70;99.90;;;;;;5036044;28;20171;-57
2021/11/10 00:51:24;;;;;;;13.20;10.97;;;4.70;99.90;;;;;;5035611;28;20425;-53
2021/11/10 00:53:50;;;;;;;14.00;10.80;;;4.80;99.90;;;;;;5035240;28;20414;-56
2021/11/10 00:56:16;;;;;;;10.97;8.93;;;4.70;99.90;;;;;;5035630;28;20770;-52
2021/11/10 00:58:41;;;;;;;12.20;10.80;;;4.60;99.90;;;;;;5035781;28;20421;-55
2021/11/10 01:01:07;;;;;;;10.50;9.40;;;4.70;99.90;;;;;;5035381;28;20194;-56
2021/11/10 01:03:32;;;;;;;11.33;10.13;;;4.80;99.90;;;;;;5035636;28;20167;-56
2021/11/10 01:05:59;;;;;;;15.07;10.63;;;4.70;99.90;;;;;;5034370;28;20178;-54
2021/11/10 01:08:25;;;;;;;14.97;11.57;;;4.70;99.90;;;;;;5026398;28;20175;-58
2021/11/10 01:10:52;;;;;;;10.63;9.63;;;4.80;99.90;;;;;;5015366;28;20403;-58
2021/11/10 01:13:18;;;;;;;13.23;10.37;;;4.90;99.90;;;;;;5015827;28;20484;-58
2021/11/10 01:15:45;;;;;;;14.87;11.80;;;4.90;99.90;;;;;;5015769;28;20403;-52
2021/11/10 01:18:11;;;;;;;13.03;10.30;;;4.80;99.90;;;;;;5015718;28;20434;-54
2021/11/10 01:20:37;;;;;;;11.67;10.30;;;4.70;99.90;;;;;;5015256;28;20453;-58
2021/11/10 01:23:03;;;;;;;15.20;10.90;;;4.70;99.90;;;;;;5014886;28;21026;-57
2021/11/10 01:25:29;;;;;;;11.43;10.00;;;4.60;99.90;;;;;;5015263;28;20446;-56
2021/11/10 01:27:55;;;;;;;12.90;11.33;;;4.70;99.90;;;;;;4997711;28;20407;-59
2021/11/10 01:30:21;;;;;;;12.43;10.93;;;4.70;99.90;;;;;;5015551;28;20186;-52
2021/11/10 01:32:48;;;;;;;16.43;12.10;;;4.70;99.90;;;;;;5015418;28;20427;-54
2021/11/10 01:35:14;;;;;;;12.80;11.40;;;4.70;99.90;;;;;;5020859;28;20425;-55
2021/11/10 01:37:40;;;;;;;17.30;11.80;;;4.70;99.90;;;;;;5034770;28;20948;-51
2021/11/10 01:40:07;;;;;;;15.93;13.10;;;4.60;99.90;;;;;;5034261;28;20442;-54
2021/11/10 01:42:35;;;;;;;14.73;11.83;;;4.60;99.90;;;;;;5034582;28;20192;-55
2021/11/10 01:45:01;;;;;;;16.00;13.40;;;4.50;99.90;;;;;;5034609;28;20413;-53
2021/11/10 01:47:27;;;;;;;14.17;11.53;;;4.40;99.90;;;;;;5034851;28;20895;-56
2021/11/10 01:49:52;;;;;;;19.70;12.63;;;4.40;99.90;;;;;;5032751;28;20410;-54
2021/11/10 01:52:18;;;;;;;16.30;12.30;;;4.40;99.90;;;;;;5032616;28;20191;-54
2021/11/10 01:54:44;;;;;;;14.47;12.97;;;4.30;99.90;;;;;;5034064;28;20172;-53
2021/11/10 01:57:11;;;;;;;18.17;14.37;;;4.30;99.90;;;;;;5034888;28;20251;-59
2021/11/10 01:59:48;;;;;;;15.00;11.70;;;4.20;99.90;;;;;;5034694;28;20264;-58
2021/11/10 02:02:27;;;;;;;14.77;12.47;;;4.30;99.90;;;;;;5034530;28;20410;-56
2021/11/10 02:04:53;;;;;;;25.37;15.40;;;4.50;99.90;;;;;;5034326;28;20386;-58
2021/11/10 02:07:20;;;;;;;23.27;15.73;;;4.40;99.90;;;;;;5034199;28;20907;-57
2021/11/10 02:09:47;;;;;;;16.07;12.63;;;4.30;99.90;;;;;;5034034;28;20410;-53
2021/11/10 02:12:13;;;;;;;19.93;15.53;;;4.30;99.90;;;;;;5034541;28;20422;-52
2021/11/10 02:14:39;;;;;;;18.17;13.90;;;4.20;99.90;;;;;;5034425;28;20925;-56
2021/11/10 02:17:07;;;;;;;17.13;14.30;;;4.20;99.90;;;;;;5034137;28;20406;-55
2021/11/10 02:19:33;;;;;;;15.63;13.10;;;4.20;99.90;;;;;;5034078;28;20506;-54
2021/11/10 02:22:01;;;;;;;17.97;12.83;;;4.20;99.90;;;;;;5033816;28;20450;-54
2021/11/10 02:24:29;;;;;;;22.27;14.00;;;4.20;99.90;;;;;;5033373;28;20413;-52
2021/11/10 02:26:55;;;;;;;17.13;13.60;;;4.20;99.90;;;;;;5033985;28;20489;-58
2021/11/10 02:29:24;;;;;;;20.77;15.40;;;4.30;99.90;;;;;;5034027;28;20741;-55
2021/11/10 02:31:52;;;;;;;21.73;16.70;;;4.30;99.90;;;;;;5033700;28;20930;-57
2021/11/10 02:34:17;;;;;;;21.77;14.47;;;4.30;99.90;;;;;;5034174;28;20709;-56
2021/11/10 02:36:44;;;;;;;16.73;13.73;;;4.30;99.90;;;;;;5033622;28;20422;-56
2021/11/10 02:39:13;;;;;;;19.63;15.37;;;4.40;99.90;;;;;;5033089;28;20175;-52
2021/11/10 02:41:40;;;;;;;27.27;17.40;;;4.50;99.90;;;;;;5033751;28;20430;-53
2021/11/10 02:44:06;;;;;;;25.40;17.63;;;4.50;99.90;;;;;;5033431;28;20503;-54
2021/11/10 02:46:36;;;;;;;28.53;17.90;;;4.40;99.90;;;;;;5033577;28;20893;-58
2021/11/10 02:49:03;;;;;;;16.33;14.20;;;4.40;99.90;;;;;;5033808;28;20497;-55
2021/11/10 02:51:28;;;;;;;20.33;15.77;;;4.40;99.90;;;;;;5033871;28;20504;-56
2021/11/10 02:53:54;;;;;;;17.00;14.53;;;4.40;99.90;;;;;;5033530;28;20402;-53
2021/11/10 02:56:20;;;;;;;23.57;16.97;;;4.40;99.90;;;;;;5033712;28;20175;-53
2021/11/10 02:58:46;;;;;;;17.50;15.20;;;4.40;99.90;;;;;;5033631;28;20183;-56
2021/11/10 03:01:12;;;;;;;19.13;15.70;;;4.50;99.90;;;;;;5033374;28;20504;-56
2021/11/10 03:03:37;;;;;;;21.53;16.10;;;4.40;99.90;;;;;;5032326;28;20211;-56
2021/11/10 03:06:03;;;;;;;19.93;15.37;;;4.30;99.90;;;;;;5033344;28;20186;-58
2021/11/10 03:08:29;;;;;;;18.93;16.57;;;4.30;99.90;;;;;;5033191;28;20182;-55
2021/11/10 03:10:56;;;;;;;25.80;17.83;;;4.30;99.90;;;;;;5033179;28;20471;-56
2021/11/10 03:13:23;;;;;;;16.90;14.80;;;4.30;99.90;;;;;;5033009;28;20432;-54
2021/11/10 03:15:49;;;;;;;23.00;17.40;;;4.50;99.90;;;;;;5033428;28;20502;-53
2021/11/10 03:18:15;;;;;;;22.87;16.73;;;4.60;99.90;;;;;;5024885;28;20423;-54
2021/11/10 03:20:41;;;;;;;21.17;17.03;;;4.50;99.90;;;;;;5029515;28;20469;-56
2021/11/10 03:23:07;;;;;;;20.83;15.93;;;4.40;99.90;;;;;;5032869;28;20445;-56
2021/11/10 03:25:34;;;;;;;24.27;17.47;;;4.40;99.90;;;;;;5032641;28;20840;-55
2021/11/10 03:28:00;;;;;;;24.87;17.47;;;4.40;99.90;;;;;;5032599;28;20425;-58
2021/11/10 03:30:27;;;;;;;23.50;17.17;;;4.30;99.90;;;;;;5032462;28;20784;-57
2021/11/10 03:32:55;;;;;;;23.70;17.97;;;4.20;99.90;;;;;;5032883;28;20829;-58
2021/11/10 03:35:21;;;;;;;16.50;12.83;;;4.10;99.90;;;;;;5032894;28;20418;-53
2021/11/10 03:37:47;;;;;;;19.87;16.90;;;4.00;99.90;;;;;;5033117;28;20409;-54
2021/11/10 03:40:13;;;;;;;23.07;18.33;;;3.90;99.90;;;;;;5014743;28;20464;-57
2021/11/10 03:42:39;;;;;;;19.50;15.43;;;3.90;99.90;;;;;;5032920;28;20215;-57
2021/11/10 03:45:06;;;;;;;21.40;15.27;;;4.10;99.90;;;;;;5030337;28;20425;-55
2021/11/10 03:47:32;;;;;;;19.37;15.17;;;4.20;99.90;;;;;;5033293;28;20172;-51
2021/11/10 03:49:57;;;;;;;22.03;17.97;;;4.40;99.90;;;;;;5015233;28;20440;-57
2021/11/10 03:52:23;;;;;;;22.07;17.20;;;4.50;99.90;;;;;;5033008;28;20635;-56
2021/11/10 03:54:49;;;;;;;21.30;17.40;;;4.60;99.90;;;;;;5032383;28;20532;-55
2021/11/10 03:57:14;;;;;;;22.27;16.00;;;4.60;99.90;;;;;;5032612;28;20171;-59
2021/11/10 03:59:41;;;;;;;18.60;15.00;;;4.70;99.90;;;;;;5032489;28;20227;-52
2021/11/10 04:02:09;;;;;;;16.10;14.03;;;4.70;99.90;;;;;;5032493;28;20187;-56
2021/11/10 04:04:34;;;;;;;19.17;14.33;;;4.80;99.90;;;;;;5032473;28;20409;-55
2021/11/10 04:07:00;;;;;;;18.80;15.90;;;4.80;99.90;;;;;;5032764;28;20394;-54
2021/11/10 04:09:26;;;;;;;20.70;15.63;;;4.60;99.90;;;;;;5032200;28;20177;-54
2021/11/10 04:11:52;;;;;;;21.60;15.10;;;4.60;99.90;;;;;;5032843;28;20183;-56
2021/11/10 04:14:18;;;;;;;22.33;17.23;;;4.60;99.90;;;;;;5034158;28;20413;-55
2021/11/10 04:16:44;;;;;;;25.10;17.23;;;4.60;99.90;;;;;;5036610;28;20562;-58
2021/11/10 04:19:09;;;;;;;22.10;17.97;;;4.60;99.90;;;;;;5036447;28;20402;-54
2021/11/10 04:21:35;;;;;;;18.97;14.30;;;4.60;99.90;;;;;;5035913;28;20457;-56
2021/11/10 04:24:01;;;;;;;22.30;17.40;;;4.50;99.90;;;;;;5035920;28;20527;-53
2021/11/10 04:26:32;;;;;;;26.50;18.10;;;4.50;99.90;;;;;;5035924;28;20949;-54
2021/11/10 04:28:58;;;;;;;21.10;16.90;;;4.40;99.90;;;;;;5036625;28;20144;-58
2021/11/10 04:31:24;;;;;;;20.37;16.27;;;4.30;99.90;;;;;;5036163;28;20416;-53
2021/11/10 04:33:51;;;;;;;21.17;14.93;;;4.30;99.90;;;;;;5036290;28;20413;-53
2021/11/10 04:36:18;;;;;;;17.13;14.07;;;4.20;99.90;;;;;;5036188;28;20463;-50
2021/11/10 04:38:45;;;;;;;23.57;17.10;;;4.20;99.90;;;;;;5036001;28;20810;-54
2021/11/10 04:41:11;;;;;;;21.63;17.10;;;4.30;99.90;;;;;;5035631;28;20569;-56
2021/11/10 04:43:37;;;;;;;18.50;15.80;;;4.40;99.90;;;;;;5036199;28;20801;-56
2021/11/10 04:46:14;;;;;;;17.40;14.20;;;4.40;99.90;;;;;;5035861;28;20432;-56
2021/11/10 04:48:40;;;;;;;19.30;15.20;;;4.40;99.90;;;;;;5036112;28;20389;-56
2021/11/10 04:51:07;;;;;;;16.33;13.93;;;4.40;99.90;;;;;;5036009;28;20468;-55
2021/11/10 04:53:39;;;;;;;22.07;17.27;;;4.40;99.90;;;;;;5035758;28;21025;-55
2021/11/10 04:56:05;;;;;;;17.53;14.23;;;4.30;99.90;;;;;;5017672;28;20432;-56
2021/11/10 04:58:31;;;;;;;18.57;14.63;;;4.30;99.90;;;;;;5035826;28;20421;-57
2021/11/10 05:00:57;;;;;;;19.33;15.47;;;4.30;99.90;;;;;;5035710;28;20441;-56
2021/11/10 05:03:23;;;;;;;24.07;17.47;;;4.30;99.90;;;;;;5035421;28;20691;-57
2021/11/10 05:05:50;;;;;;;23.63;19.63;;;4.20;99.90;;;;;;5035615;28;20930;-56
2021/11/10 05:08:16;;;;;;;18.93;16.93;;;4.00;99.90;;;;;;5035336;28;20452;-55
2021/11/10 05:10:42;;;;;;;21.17;17.60;;;3.90;99.90;;;;;;5034786;28;20410;-55
2021/11/10 05:13:07;;;;;;;22.07;16.90;;;3.90;99.90;;;;;;5035481;28;20492;-54
2021/11/10 05:15:33;;;;;;;23.50;18.27;;;3.70;99.90;;;;;;5035337;28;20171;-53
2021/11/10 05:17:59;;;;;;;21.40;16.00;;;3.60;99.90;;;;;;5035432;28;20565;-55
2021/11/10 05:20:25;;;;;;;24.13;18.47;;;3.60;99.90;;;;;;5035377;28;20449;-56
2021/11/10 05:22:50;;;;;;;23.60;16.80;;;3.60;99.90;;;;;;5058465;23;20474;-55
2021/11/10 05:25:16;;;;;;;23.97;18.27;;;3.60;99.90;;;;;;5033832;28;20164;-59
2021/11/10 05:27:42;;;;;;;24.20;18.47;;;3.70;99.90;;;;;;5035251;28;20267;-59
2021/11/10 05:30:10;;;;;;;22.73;16.73;;;3.60;99.90;;;;;;5035299;28;20430;-58
2021/11/10 05:32:36;;;;;;;26.03;17.93;;;3.70;99.90;;;;;;5035393;28;20696;-59
2021/11/10 05:35:02;;;;;;;24.87;18.37;;;3.70;99.90;;;;;;5033984;28;20965;-58
2021/11/10 05:37:29;;;;;;;24.00;17.57;;;3.80;99.90;;;;;;5035525;28;20438;-59
2021/11/10 05:39:56;;;;;;;17.37;14.30;;;3.80;99.90;;;;;;5034553;28;20488;-59
2021/11/10 05:42:22;;;;;;;18.90;15.30;;;4.00;99.90;;;;;;5034785;28;20422;-59
2021/11/10 05:44:47;;;;;;;24.10;17.23;;;4.00;99.90;;;;;;5035211;28;20402;-59
2021/11/10 05:47:13;;;;;;;24.70;16.43;;;4.00;99.90;;;;;;5036037;28;20411;-57
2021/11/10 05:49:39;;;;;;;22.67;17.00;;;4.00;99.90;;;;;;5038564;28;20171;-55
2021/11/10 05:52:05;;;;;;;17.60;14.17;;;4.00;99.90;;;;;;5031437;28;20421;-60
2021/11/10 05:54:31;;;;;;;17.83;14.10;;;4.00;99.90;;;;;;5034434;28;20170;-60
2021/11/10 05:56:57;;;;;;;20.33;15.70;;;3.90;99.90;;;;;;5033327;28;20784;-60
2021/11/10 05:59:22;;;;;;;17.00;13.63;;;3.90;99.90;;;;;;5034699;28;20456;-59
2021/11/10 06:01:48;;;;;;;17.30;14.17;;;3.90;99.90;;;;;;5034514;28;20171;-60
2021/11/10 06:04:14;;;;;;;20.87;16.90;;;3.90;99.90;;;;;;5034782;28;20706;-60
2021/11/10 06:06:40;;;;;;;24.50;17.70;;;3.90;99.90;;;;;;5034324;28;20254;-60
2021/11/10 06:09:06;;;;;;;20.07;17.83;;;3.90;99.90;;;;;;5034276;28;20214;-60
2021/11/10 06:11:32;;;;;;;20.33;16.10;;;3.90;99.90;;;;;;5034320;28;20406;-59
2021/11/10 06:13:58;;;;;;;23.30;17.60;;;3.90;99.90;;;;;;5034598;28;20225;-57
2021/11/10 06:16:23;;;;;;;22.40;18.17;;;3.80;99.90;;;;;;5034986;28;20167;-58
2021/11/10 06:18:49;;;;;;;20.20;15.53;;;3.80;99.90;;;;;;5034239;28;20176;-60
2021/11/10 06:21:15;;;;;;;19.53;15.80;;;3.80;99.90;;;;;;5034572;28;20194;-60
2021/11/10 06:23:41;;;;;;;23.40;17.00;;;3.80;99.90;;;;;;5034102;28;20210;-60
2021/11/10 06:26:07;;;;;;;27.57;17.90;;;3.90;99.90;;;;;;5033746;28;20753;-58
2021/11/10 06:28:32;;;;;;;30.60;20.70;;;4.00;99.90;;;;;;5034030;28;20397;-58
2021/11/10 06:30:58;;;;;;;22.47;17.70;;;4.00;99.90;;;;;;5034509;28;20167;-59
2021/11/10 06:33:24;;;;;;;27.47;16.80;;;3.90;99.90;;;;;;5034621;28;20254;-59
2021/11/10 06:35:50;;;;;;;23.43;17.63;;;4.00;99.90;;;;;;5035198;28;20445;-58
2021/11/10 06:38:16;;;;;;;18.70;14.80;;;4.10;99.90;;;;;;5034136;28;20171;-59
2021/11/10 06:40:42;;;;;;;19.90;17.03;;;4.10;99.90;;;;;;5034676;28;20202;-59
2021/11/10 06:43:08;;;;;;;23.80;17.83;;;4.10;99.90;;;;;;5034670;28;20422;-57
2021/11/10 06:45:33;;;;;;;20.17;16.43;;;4.20;99.90;;;;;;5035471;28;20195;-58
2021/11/10 06:47:59;;;;;;;23.13;17.13;;;4.10;99.90;;;;;;5039453;28;20167;-59
2021/11/10 06:50:25;;;;;;;18.70;14.60;;;4.10;99.90;;;;;;5039725;28;20171;-58
2021/11/10 06:52:50;;;;;;;20.70;17.07;;;4.20;99.90;;;;;;5034396;28;20253;-57
2021/11/10 06:55:16;;;;;;;22.03;18.57;;;4.30;99.90;;;;;;5033936;28;20643;-58
2021/11/10 06:57:42;;;;;;;23.57;19.00;;;4.30;99.90;;;;;;5034000;28;20168;-59
2021/11/10 07:00:11;;;;;;;24.37;18.07;;;4.30;99.90;;;;;;5033810;28;20187;-59
2021/11/10 07:02:37;;;;;;;26.50;19.70;;;4.40;99.90;;;;;;5033591;28;20191;-58
2021/11/10 07:05:03;;;;;;;19.50;15.00;;;4.50;99.90;;;;;;5033555;28;20414;-57
2021/11/10 07:07:29;;;;;;;21.70;15.70;;;4.50;99.90;;;;;;5035167;28;20405;-58
2021/11/10 07:09:55;;;;;;;22.60;15.77;;;4.50;99.90;;;;;;5034424;28;20879;-58
2021/11/10 07:12:20;;;;;;;21.47;17.00;;;4.60;99.90;;;;;;5033631;28;20191;-59
2021/11/10 07:14:46;;;;;;;22.10;16.50;;;4.60;99.90;;;;;;5041269;28;20250;-59
2021/11/10 07:17:12;;;;;;;17.90;15.03;;;4.70;99.90;;;;;;5045175;28;20171;-59
2021/11/10 07:19:37;;;;;;;19.57;14.40;;;4.80;99.90;;;;;;5044609;28;20163;-58
2021/11/10 07:22:03;;;;;;;18.17;14.77;;;4.80;99.90;;;;;;5045015;28;20207;-59
2021/11/10 07:24:29;;;;;;;22.30;16.00;;;5.00;99.90;;;;;;5045742;28;20614;-55
2021/11/10 07:26:56;;;;;;;19.80;15.90;;;5.00;99.90;;;;;;5042775;28;20422;-58
2021/11/10 07:29:22;;;;;;;23.63;17.70;;;5.10;99.90;;;;;;5037456;28;20425;-58
2021/11/10 07:31:47;;;;;;;19.67;14.67;;;5.20;99.90;;;;;;5037054;28;20406;-60
2021/11/10 07:34:13;;;;;;;22.20;16.87;;;5.30;99.90;;;;;;5037533;28;20417;-60
2021/11/10 07:36:39;;;;;;;26.57;18.50;;;5.40;99.90;;;;;;5035910;28;20175;-58
2021/11/10 07:39:05;;;;;;;24.27;17.73;;;5.40;99.90;;;;;;5032947;28;20174;-59
2021/11/10 07:41:33;;;;;;;23.97;18.50;;;5.40;99.90;;;;;;5033397;28;20442;-59
2021/11/10 07:43:59;;;;;;;23.73;17.40;;;5.50;99.90;;;;;;5033281;28;20525;-58
2021/11/10 07:46:29;;;;;;;22.17;16.53;;;5.60;99.90;;;;;;5033765;28;20776;-60
2021/11/10 07:48:55;;;;;;;20.40;15.90;;;5.70;99.90;;;;;;5033137;28;20402;-60
2021/11/10 07:51:21;;;;;;;23.10;19.73;;;5.80;99.90;;;;;;5035163;28;20774;-60
2021/11/10 07:53:47;;;;;;;23.63;16.50;;;5.80;99.90;;;;;;5036837;28;20187;-60
2021/11/10 07:56:13;;;;;;;35.93;20.80;;;5.80;99.90;;;;;;5036548;28;20822;-60
2021/11/10 07:58:39;;;;;;;20.40;16.87;;;5.70;99.90;;;;;;5036814;28;20436;-60
2021/11/10 08:01:10;;;;;;;27.93;18.77;;;5.90;99.90;;;;;;5036777;28;20214;-60
2021/11/10 08:03:36;;;;;;;22.93;18.63;;;5.90;99.90;;;;;;5036858;28;20967;-58
2021/11/10 08:06:03;;;;;;;21.10;16.10;;;6.00;99.90;;;;;;5036472;28;20411;-60
2021/11/10 08:08:28;;;;;;;19.40;16.07;;;6.10;99.90;;;;;;5036652;28;20456;-59
2021/11/10 08:10:56;;;;;;;21.13;16.50;;;6.20;99.90;;;;;;5036023;28;20771;-60
2021/11/10 08:13:22;;;;;;;27.33;16.03;;;6.30;99.90;;;;;;5035927;28;20231;-60
2021/11/10 08:15:49;;;;;;;19.13;16.10;;;6.50;99.90;;;;;;5037211;28;20398;-60
2021/11/10 08:18:15;;;;;;;25.53;17.00;;;6.60;99.90;;;;;;5036546;28;20900;-60
2021/11/10 08:20:40;;;;;;;20.00;16.53;;;6.70;99.90;;;;;;5036007;28;20529;-57
2021/11/10 08:23:06;;;;;;;19.60;17.13;;;6.80;99.90;;;;;;5036180;28;20199;-59
2021/11/10 08:25:31;;;;;;;20.97;17.47;;;6.90;99.90;;;;;;5035928;28;20171;-59
2021/11/10 08:27:57;;;;;;;20.70;15.97;;;6.90;99.90;;;;;;5036572;28;20160;-59
2021/11/10 08:30:23;;;;;;;19.10;16.40;;;6.90;99.90;;;;;;5036886;28;20298;-59
2021/11/10 08:32:51;;;;;;;19.50;16.23;;;7.00;99.90;;;;;;5036415;28;20189;-59
2021/11/10 08:35:17;;;;;;;21.70;17.60;;;7.10;99.90;;;;;;5036713;28;20778;-57
2021/11/10 08:37:44;;;;;;;20.80;16.57;;;7.20;99.90;;;;;;5037347;28;20398;-59
2021/11/10 08:40:12;;;;;;;26.43;17.40;;;7.30;99.90;;;;;;5029663;28;20191;-59
2021/11/10 08:42:38;;;;;;;22.07;16.93;;;7.50;99.90;;;;;;5016568;28;20431;-57
2021/11/10 08:45:11;;;;;;;21.53;16.47;;;7.40;99.90;;;;;;5016253;28;20400;-57
2021/11/10 08:47:37;;;;;;;19.10;17.00;;;7.50;99.90;;;;;;5016480;28;20403;-58
2021/11/10 08:50:05;;;;;;;23.17;18.10;;;7.60;99.90;;;;;;5016258;28;20411;-59
2021/11/10 08:52:31;;;;;;;21.03;16.87;;;7.70;99.90;;;;;;5016132;28;20419;-59
2021/11/10 08:54:57;;;;;;;20.23;16.90;;;7.90;99.90;;;;;;5015727;28;20407;-59
2021/11/10 08:57:23;;;;;;;20.43;18.07;;;8.00;99.90;;;;;;5015846;28;20169;-60
2021/11/10 08:59:49;;;;;;;26.00;18.20;;;8.10;99.90;;;;;;5016038;28;20442;-58
2021/11/10 09:02:14;;;;;;;19.63;17.47;;;8.20;99.90;;;;;;5015706;28;20452;-56
2021/11/10 09:04:40;;;;;;;19.40;17.40;;;8.30;99.90;;;;;;5016541;28;20165;-60
2021/11/10 09:07:07;;;;;;;23.13;19.73;;;8.30;99.90;;;;;;5035681;28;20239;-58
2021/11/10 09:09:33;;;;;;;22.13;16.10;;;8.30;99.90;;;;;;5035661;28;20778;-60
2021/11/10 09:11:59;;;;;;;18.07;15.73;;;8.50;99.90;;;;;;5036024;28;20421;-58
2021/11/10 09:14:25;;;;;;;23.60;17.90;;;8.60;99.90;;;;;;5035439;28;20583;-60
2021/11/10 09:16:51;;;;;;;25.17;20.07;;;8.60;99.90;;;;;;5035548;28;20486;-60
2021/11/10 09:19:18;;;;;;;21.93;18.67;;;8.70;99.90;;;;;;5035931;28;20403;-60
2021/11/10 09:21:44;;;;;;;22.90;18.23;;;8.60;99.90;;;;;;5035229;28;20857;-60
2021/11/10 09:24:10;;;;;;;24.40;18.10;;;8.60;99.90;;;;;;5035655;28;20877;-60
2021/11/10 09:26:37;;;;;;;19.67;17.13;;;8.60;99.90;;;;;;5034753;28;20409;-60
2021/11/10 09:29:04;;;;;;;17.63;15.77;;;8.70;99.90;;;;;;5035167;28;20182;-60
2021/11/10 09:31:30;;;;;;;20.80;17.33;;;8.80;99.90;;;;;;5035343;28;20777;-60
2021/11/10 09:34:03;;;;;;;21.17;18.90;;;8.90;99.90;;;;;;5035011;28;20499;-59
2021/11/10 09:36:29;;;;;;;22.83;18.20;;;8.90;99.90;;;;;;5034953;28;20711;-59
2021/11/10 09:38:55;;;;;;;20.13;17.90;;;8.60;99.90;;;;;;5035109;28;20449;-60
2021/11/10 09:41:22;;;;;;;20.93;17.70;;;8.70;99.90;;;;;;5031230;28;20269;-60
2021/11/10 09:43:49;;;;;;;21.40;17.53;;;8.90;99.90;;;;;;5035197;28;20426;-60
2021/11/10 09:46:14;;;;;;;20.60;17.47;;;9.10;99.90;;;;;;5035045;28;20452;-60
2021/11/10 09:48:41;;;;;;;23.40;18.10;;;9.30;99.90;;;;;;5034756;28;20905;-60
2021/11/10 09:51:08;;;;;;;24.40;18.93;;;9.40;99.90;;;;;;5035047;28;20255;-60
2021/11/10 09:53:35;;;;;;;24.70;18.83;;;9.50;99.90;;;;;;5034867;28;20790;-60
2021/11/10 09:56:01;;;;;;;25.77;19.80;;;9.50;99.90;;;;;;5034354;28;20413;-59
2021/11/10 09:58:28;;;;;;;20.10;17.70;;;9.40;99.90;;;;;;5034634;28;20814;-60
2021/11/10 10:00:59;;;;;;;22.93;18.43;;;9.50;99.90;;;;;;5034801;28;20531;-59
2021/11/10 10:03:25;;;;;;;20.67;17.73;;;9.50;99.90;;;;;;5034732;28;20799;-60
2021/11/10 10:05:53;;;;;;;26.03;18.93;;;9.40;99.90;;;;;;5034458;28;20409;-60
2021/11/10 10:08:20;;;;;;;21.23;18.10;;;9.30;99.90;;;;;;5034572;28;20409;-60
2021/11/10 10:10:47;;;;;;;22.70;18.43;;;9.40;99.90;;;;;;5033812;28;20403;-59
2021/11/10 10:13:14;;;;;;;23.23;17.93;;;9.50;99.90;;;;;;5034268;28;20512;-60
2021/11/10 10:15:43;;;;;;;22.30;17.67;;;9.50;99.90;;;;;;5034801;28;20398;-56
2021/11/10 10:18:20;;;;;;;21.23;18.27;;;9.50;99.90;;;;;;5034715;28;20414;-60
2021/11/10 10:20:57;;;;;;;21.77;17.40;;;9.70;99.90;;;;;;5034230;28;20778;-55
2021/11/10 10:23:32;;;;;;;19.63;17.37;;;9.70;99.90;;;;;;5034132;28;20437;-60
2021/11/10 10:26:11;;;;;;;21.03;17.10;;;9.70;99.90;;;;;;5033771;28;20385;-53
2021/11/10 10:28:40;;;;;;;19.50;17.50;;;9.80;99.90;;;;;;5034265;28;20414;-59
2021/11/10 10:31:15;;;;;;;20.00;17.73;;;9.60;99.90;;;;;;5034397;28;20419;-54
2021/11/10 10:33:46;;;;;;;19.23;16.67;;;9.50;99.90;;;;;;5033951;28;20515;-59
2021/11/10 10:36:15;;;;;;;20.27;16.53;;;9.70;99.90;;;;;;5034783;28;20399;-58
2021/11/10 10:38:44;;;;;;;23.20;19.10;;;9.40;99.90;;;;;;5034199;28;20402;-57
2021/11/10 10:41:11;;;;;;;21.17;16.80;;;9.70;99.90;;;;;;5033594;28;20434;-56
2021/11/10 10:43:49;;;;;;;24.00;19.30;;;9.90;99.90;;;;;;5033119;28;20433;-59
2021/11/10 10:46:17;;;;;;;22.37;18.30;;;9.80;99.90;;;;;;5034123;28;20383;-60
2021/11/10 10:48:43;;;;;;;24.00;19.83;;;9.90;99.90;;;;;;5033834;28;20405;-59
2021/11/10 10:51:15;;;;;;;19.10;16.97;;;9.80;99.90;;;;;;5033409;28;20445;-60
2021/11/10 10:53:51;;;;;;;21.53;16.83;;;9.80;99.90;;;;;;5034071;28;20545;-61
2021/11/10 10:56:18;;;;;;;19.93;17.80;;;9.70;99.90;;;;;;5033378;28;20477;-61
2021/11/10 10:58:45;;;;;;;25.43;17.27;;;10.00;99.90;;;;;;5033691;28;20408;-59
2021/11/10 11:01:20;;;;;;;22.10;18.50;;;10.30;99.90;;;;;;5033534;28;20537;-60
2021/11/10 11:04:09;;;;;;;24.77;18.90;;;10.60;99.90;;;;;;5033738;28;20982;-60
2021/11/10 11:06:48;;;;;;;20.07;17.90;;;10.80;99.90;;;;;;5033648;28;20466;-60
2021/11/10 11:09:43;;;;;;;20.70;17.60;;;10.80;99.90;;;;;;5033875;28;20383;-60
2021/11/10 11:12:15;;;;;;;24.97;17.70;;;10.00;99.90;;;;;;5033307;28;20419;-60
2021/11/10 11:17:18;;;;;;;21.20;17.37;;;10.40;99.90;;;;;;5033898;28;20910;-59
2021/11/10 11:19:55;;;;;;;25.30;19.10;;;10.70;99.90;;;;;;5033568;28;20408;-60
2021/11/10 11:22:21;;;;;;;21.17;17.77;;;10.90;99.90;;;;;;5056586;22;20453;-57
2021/11/10 11:24:47;;;;;;;22.90;17.90;;;11.30;99.90;;;;;;5012320;28;20395;-53
2021/11/10 11:27:28;;;;;;;18.80;16.90;;;12.20;99.90;;;;;;5013553;28;20399;-56
2021/11/10 11:30:06;;;;;;;24.93;18.03;;;13.30;99.90;;;;;;5013696;28;20223;-56
2021/11/10 11:32:41;;;;;;;22.97;18.70;;;13.70;99.90;;;;;;5007045;28;20446;-55
2021/11/10 11:35:08;;;;;;;20.07;18.00;;;13.40;99.90;;;;;;5000759;28;20414;-55
2021/11/10 11:37:34;;;;;;;22.83;18.00;;;13.10;99.90;;;;;;5013333;28;20405;-57
2021/11/10 11:40:16;;;;;;;22.40;18.83;;;13.10;99.90;;;;;;5013218;28;20482;-57
2021/11/10 11:42:43;;;;;;;20.87;18.60;;;12.60;99.90;;;;;;5013066;28;20427;-56
2021/11/10 11:45:10;;;;;;;21.03;18.83;;;12.20;99.90;;;;;;5013349;28;20402;-57
2021/11/10 11:47:36;;;;;;;21.17;19.03;;;11.70;99.90;;;;;;5005482;28;20416;-55
2021/11/10 11:50:04;;;;;;;21.47;19.17;;;11.60;99.90;;;;;;4993482;28;20415;-57
2021/11/10 11:52:32;;;;;;;30.30;20.10;;;11.80;99.90;;;;;;4993793;28;20236;-56
2021/11/10 11:55:04;;;;;;;22.40;19.07;;;11.80;99.90;;;;;;4993573;28;20438;-57
2021/11/10 11:57:30;;;;;;;22.17;19.07;;;11.80;99.90;;;;;;4975805;28;20980;-56
2021/11/10 11:59:57;;;;;;;28.43;20.70;;;12.00;99.90;;;;;;4993131;28;20924;-58
2021/11/10 12:02:26;;;;;;;22.07;19.67;;;11.50;99.90;;;;;;4993440;28;20435;-57
2021/11/10 12:04:52;;;;;;;20.37;17.80;;;11.50;99.90;;;;;;4996111;28;20402;-57
2021/11/10 12:07:41;;;;;;;19.97;17.43;;;11.50;99.90;;;;;;5012888;28;20915;-57
2021/11/10 12:10:37;;;;;;;24.73;20.03;;;11.60;99.90;;;;;;5012673;28;20411;-53
2021/11/10 12:13:21;;;;;;;21.00;18.67;;;11.50;99.90;;;;;;4996159;28;20792;-58
2021/11/10 12:16:13;;;;;;;24.03;18.73;;;11.80;99.90;;;;;;5013142;28;20397;-57
2021/11/10 12:18:44;;;;;;;25.30;19.20;;;12.30;99.90;;;;;;5013198;28;20488;-57
2021/11/10 12:21:10;;;;;;;22.93;17.77;;;12.50;99.90;;;;;;5012649;28;20474;-55
2021/11/10 12:23:54;;;;;;;21.80;18.03;;;12.40;99.90;;;;;;5012674;28;20474;-56
2021/11/10 12:26:24;;;;;;;20.40;18.23;;;12.60;99.90;;;;;;5012545;28;20522;-58
2021/11/10 12:28:57;;;;;;;26.50;19.10;;;13.10;99.90;;;;;;5012805;28;20413;-54
2021/11/10 12:31:31;;;;;;;21.80;19.50;;;14.40;99.90;;;;;;5013378;28;20379;-58
2021/11/10 12:33:58;;;;;;;20.53;16.77;;;14.80;99.90;;;;;;5012260;28;20436;-57
2021/11/10 12:36:47;;;;;;;17.77;15.97;;;15.20;99.70;;;;;;5015791;28;20425;-55
2021/11/10 12:39:12;;;;;;;20.00;16.43;;;16.20;98.40;;;;;;5016752;28;20414;-53